sensor_id;sensor_type;location;lat;lon;timestamp;pressure;altitude;pressure_sealevel;temperature;humidity
7050;BME280;22263;52.260;10.548;2022-08-30T00:01:21;101069.75;;;17.03;100.00
7050;BME280;22263;52.260;10.548;2022-08-30T00:03:49;101080.16;;;17.02;100.00
7050;BME280;22263;52.260;10.548;2022-08-30T00:06:21;101080.16;;;17.02;100.00
7050;BME280;22263;52.260;10.548;2022-08-30T00:08:51;101087.75;;;16.98;100.00
7050;BME280;22263;52.260;10.548;2022-08-30T00:11:23;101086.59;;;16.96;100.00
7050;BME280;22263;52.260;10.548;2022-08-30T00:13:56;101083.81;;;16.92;100.00
7050;BME280;22263;52.260;10.548;2022-08-30T00:16:26;101090.59;;;16.91;100.00
7050;BME280;22263;52.260;10.548;2022-08-30T00:18:56;101090.19;;;16.89;100.00
7050;BME280;22263;52.260;10.548;2022-08-30T00:21:27;101086.25;;;16.83;100.00
7050;BME280;22263;52.260;10.548;2022-08-30T00:23:58;101082.66;;;16.83;100.00
7050;BME280;22263;52.260;10.548;2022-08-30T00:26:30;101077.88;;;16.80;100.00
7050;BME280;22263;52.260;10.548;2022-08-30T00:29:06;101081.50;;;16.77;100.00
7050;BME280;22263;52.260;10.548;2022-08-30T00:31:36;101091.09;;;16.72;100.00
7050;BME280;22263;52.260;10.548;2022-08-30T00:34:06;101091.50;;;16.67;100.00
7050;BME280;22263;52.260;10.548;2022-08-30T00:36:36;101094.69;;;16.66;100.00
7050;BME280;22263;52.260;10.548;2022-08-30T00:39:06;101095.13;;;16.64;100.00
7050;BME280;22263;52.260;10.548;2022-08-30T00:41:40;101099.50;;;16.65;100.00
7050;BME280;22263;52.260;10.548;2022-08-30T00:44:13;101102.28;;;16.65;100.00
7050;BME280;22263;52.260;10.548;2022-08-30T00:46:45;101088.34;;;16.58;100.00
7050;BME280;22263;52.260;10.548;2022-08-30T00:49:14;101097.13;;;16.60;100.00
7050;BME280;22263;52.260;10.548;2022-08-30T00:51:45;101090.72;;;16.56;100.00
7050;BME280;22263;52.260;10.548;2022-08-30T00:54:15;101090.72;;;16.56;100.00
7050;BME280;22263;52.260;10.548;2022-08-30T00:56:47;101086.72;;;16.57;100.00
7050;BME280;22263;52.260;10.548;2022-08-30T00:59:22;101088.34;;;16.54;100.00
7050;BME280;22263;52.260;10.548;2022-08-30T01:01:53;101088.75;;;16.53;100.00
7050;BME280;22263;52.260;10.548;2022-08-30T01:04:25;101085.94;;;16.53;100.00
7050;BME280;22263;52.260;10.548;2022-08-30T01:06:55;101090.34;;;16.54;100.00
7050;BME280;22263;52.260;10.548;2022-08-30T01:09:26;101086.31;;;16.55;100.00
7050;BME280;22263;52.260;10.548;2022-08-30T01:11:56;101089.13;;;16.55;100.00
7050;BME280;22263;52.260;10.548;2022-08-30T01:14:30;101084.38;;;16.48;100.00
7050;BME280;22263;52.260;10.548;2022-08-30T01:17:00;101092.31;;;16.50;100.00
7050;BME280;22263;52.260;10.548;2022-08-30T01:19:37;101095.97;;;16.40;100.00
7050;BME280;22263;52.260;10.548;2022-08-30T01:22:18;101093.19;;;16.40;100.00
7050;BME280;22263;52.260;10.548;2022-08-30T01:24:57;101095.16;;;16.36;100.00
7050;BME280;22263;52.260;10.548;2022-08-30T01:27:28;101099.97;;;16.35;100.00
7050;BME280;22263;52.260;10.548;2022-08-30T01:30:00;101097.16;;;16.39;100.00
7050;BME280;22263;52.260;10.548;2022-08-30T01:32:38;101100.75;;;16.39;100.00
7050;BME280;22263;52.260;10.548;2022-08-30T01:35:10;101103.13;;;16.48;100.00
7050;BME280;22263;52.260;10.548;2022-08-30T01:37:42;101102.72;;;16.53;100.00
7050;BME280;22263;52.260;10.548;2022-08-30T01:40:16;101099.09;;;16.56;100.00
7050;BME280;22263;52.260;10.548;2022-08-30T01:42:48;101107.47;;;16.56;100.00
7050;BME280;22263;52.260;10.548;2022-08-30T01:45:18;101106.69;;;16.55;100.00
7050;BME280;22263;52.260;10.548;2022-08-30T01:47:48;101107.09;;;16.54;100.00
7050;BME280;22263;52.260;10.548;2022-08-30T01:50:18;101105.09;;;16.54;100.00
7050;BME280;22263;52.260;10.548;2022-08-30T01:52:47;101103.09;;;16.62;100.00
7050;BME280;22263;52.260;10.548;2022-08-30T01:55:22;101105.13;;;16.58;100.00
7050;BME280;22263;52.260;10.548;2022-08-30T01:57:52;101105.13;;;16.44;100.00
7050;BME280;22263;52.260;10.548;2022-08-30T02:00:24;101103.94;;;16.45;100.00
7050;BME280;22263;52.260;10.548;2022-08-30T02:02:54;101103.94;;;16.45;100.00
7050;BME280;22263;52.260;10.548;2022-08-30T02:05:24;101100.34;;;16.41;100.00
7050;BME280;22263;52.260;10.548;2022-08-30T02:07:55;101106.72;;;16.48;100.00
7050;BME280;22263;52.260;10.548;2022-08-30T02:10:27;101108.66;;;16.55;100.00
7050;BME280;22263;52.260;10.548;2022-08-30T02:12:59;101102.69;;;16.56;100.00
7050;BME280;22263;52.260;10.548;2022-08-30T02:15:29;101103.09;;;16.55;100.00
7050;BME280;22263;52.260;10.548;2022-08-30T02:18:07;101100.78;;;16.29;100.00
7050;BME280;22263;52.260;10.548;2022-08-30T02:20:38;101098.78;;;16.33;100.00
7050;BME280;22263;52.260;10.548;2022-08-30T02:23:08;101088.38;;;16.40;100.00
7050;BME280;22263;52.260;10.548;2022-08-30T02:25:41;101094.75;;;16.48;100.00
7050;BME280;22263;52.260;10.548;2022-08-30T02:28:13;101098.72;;;16.47;100.00
7050;BME280;22263;52.260;10.548;2022-08-30T02:30:46;101101.53;;;16.36;100.00
7050;BME280;22263;52.260;10.548;2022-08-30T02:33:16;101101.94;;;16.42;100.00
7050;BME280;22263;52.260;10.548;2022-08-30T02:35:47;101094.38;;;16.39;100.00
7050;BME280;22263;52.260;10.548;2022-08-30T02:38:17;101086.81;;;16.32;100.00
7050;BME280;22263;52.260;10.548;2022-08-30T02:40:49;101093.19;;;16.36;100.00
7050;BME280;22263;52.260;10.548;2022-08-30T02:43:19;101097.16;;;16.39;100.00
7050;BME280;22263;52.260;10.548;2022-08-30T02:45:50;101091.59;;;16.39;100.00
7050;BME280;22263;52.260;10.548;2022-08-30T02:48:22;101091.56;;;16.46;100.00
7050;BME280;22263;52.260;10.548;2022-08-30T02:50:52;101091.94;;;16.48;100.00
7050;BME280;22263;52.260;10.548;2022-08-30T02:53:24;101083.16;;;16.46;100.00
7050;BME280;22263;52.260;10.548;2022-08-30T02:55:58;101082.03;;;16.40;100.00
7050;BME280;22263;52.260;10.548;2022-08-30T02:58:30;101078.44;;;16.32;100.00
7050;BME280;22263;52.260;10.548;2022-08-30T03:01:01;101081.22;;;16.36;100.00
7050;BME280;22263;52.260;10.548;2022-08-30T03:03:31;101079.22;;;16.40;100.00
7050;BME280;22263;52.260;10.548;2022-08-30T03:06:02;101074.44;;;16.37;100.00
7050;BME280;22263;52.260;10.548;2022-08-30T03:08:35;101086.78;;;16.36;100.00
7050;BME280;22263;52.260;10.548;2022-08-30T03:11:07;101078.44;;;16.32;100.00
7050;BME280;22263;52.260;10.548;2022-08-30T03:13:39;101079.66;;;16.28;100.00
7050;BME280;22263;52.260;10.548;2022-08-30T03:16:11;101083.25;;;16.28;100.00
7050;BME280;22263;52.260;10.548;2022-08-30T03:18:40;101078.84;;;16.27;100.00
7050;BME280;22263;52.260;10.548;2022-08-30T03:21:12;101080.84;;;16.27;100.00
7050;BME280;22263;52.260;10.548;2022-08-30T03:23:44;101084.44;;;16.24;100.00
7050;BME280;22263;52.260;10.548;2022-08-30T03:26:17;101086.41;;;16.27;100.00
7050;BME280;22263;52.260;10.548;2022-08-30T03:28:47;101094.03;;;16.16;100.00
7050;BME280;22263;52.260;10.548;2022-08-30T03:31:17;101094.81;;;16.12;100.00
7050;BME280;22263;52.260;10.548;2022-08-30T03:33:47;101092.44;;;16.14;100.00
7050;BME280;22263;52.260;10.548;2022-08-30T03:36:17;101091.25;;;16.16;100.00
7050;BME280;22263;52.260;10.548;2022-08-30T03:38:48;101097.63;;;16.12;100.00
7050;BME280;22263;52.260;10.548;2022-08-30T03:41:20;101098.84;;;16.01;100.00
7050;BME280;22263;52.260;10.548;2022-08-30T03:43:50;101091.66;;;16.07;100.00
7050;BME280;22263;52.260;10.548;2022-08-30T03:46:28;101089.28;;;16.05;100.00
7050;BME280;22263;52.260;10.548;2022-08-30T03:49:03;101096.84;;;15.98;100.00
7050;BME280;22263;52.260;10.548;2022-08-30T03:51:33;101092.06;;;15.98;100.00
7050;BME280;22263;52.260;10.548;2022-08-30T03:54:05;101090.88;;;15.92;100.00
7050;BME280;22263;52.260;10.548;2022-08-30T03:56:38;101086.88;;;15.83;100.00
7050;BME280;22263;52.260;10.548;2022-08-30T03:59:08;101100.84;;;15.76;100.00
7050;BME280;22263;52.260;10.548;2022-08-30T04:01:38;101096.88;;;15.66;100.00
7050;BME280;22263;52.260;10.548;2022-08-30T04:04:14;101098.84;;;15.55;100.00
7050;BME280;22263;52.260;10.548;2022-08-30T04:06:47;101092.47;;;15.54;100.00
7050;BME280;22263;52.260;10.548;2022-08-30T04:09:17;101105.19;;;15.45;100.00
7050;BME280;22263;52.260;10.548;2022-08-30T04:11:50;101112.72;;;15.26;100.00
7050;BME280;22263;52.260;10.548;2022-08-30T04:14:20;101105.19;;;15.34;100.00
7050;BME280;22263;52.260;10.548;2022-08-30T04:16:56;101121.50;;;15.25;100.00
7050;BME280;22263;52.260;10.548;2022-08-30T04:19:26;101117.91;;;15.24;100.00
7050;BME280;22263;52.260;10.548;2022-08-30T04:21:57;101125.06;;;15.18;100.00
7050;BME280;22263;52.260;10.548;2022-08-30T04:24:27;101126.63;;;15.12;100.00
7050;BME280;22263;52.260;10.548;2022-08-30T04:27:01;101126.63;;;15.12;100.00
7050;BME280;22263;52.260;10.548;2022-08-30T04:29:32;101136.59;;;15.17;100.00
7050;BME280;22263;52.260;10.548;2022-08-30T04:32:02;101133.00;;;15.16;100.00
7050;BME280;22263;52.260;10.548;2022-08-30T04:34:33;101138.97;;;15.22;100.00
7050;BME280;22263;52.260;10.548;2022-08-30T04:37:05;101140.59;;;15.23;100.00
7050;BME280;22263;52.260;10.548;2022-08-30T04:39:37;101138.56;;;15.13;100.00
7050;BME280;22263;52.260;10.548;2022-08-30T04:42:11;101153.72;;;15.22;100.00
7050;BME280;22263;52.260;10.548;2022-08-30T04:44:45;101146.53;;;15.14;100.00
7050;BME280;22263;52.260;10.548;2022-08-30T04:47:18;101148.91;;;15.12;100.00
7050;BME280;22263;52.260;10.548;2022-08-30T04:49:48;101148.09;;;15.05;100.00
7050;BME280;22263;52.260;10.548;2022-08-30T04:52:18;101158.81;;;15.03;100.00
7050;BME280;22263;52.260;10.548;2022-08-30T04:54:53;101157.25;;;15.09;100.00
7050;BME280;22263;52.260;10.548;2022-08-30T04:57:31;101157.25;;;15.09;100.00
7050;BME280;22263;52.260;10.548;2022-08-30T05:00:06;101164.34;;;14.92;100.00
7050;BME280;22263;52.260;10.548;2022-08-30T05:02:40;101168.34;;;14.95;100.00
7050;BME280;22263;52.260;10.548;2022-08-30T05:05:11;101163.53;;;14.81;100.00
7050;BME280;22263;52.260;10.548;2022-08-30T05:07:54;101169.09;;;14.88;100.00
7050;BME280;22263;52.260;10.548;2022-08-30T05:10:24;101175.91;;;14.98;100.00
7050;BME280;22263;52.260;10.548;2022-08-30T05:12:58;101180.72;;;15.04;100.00
7050;BME280;22263;52.260;10.548;2022-08-30T05:15:27;101186.34;;;15.15;100.00
7050;BME280;22263;52.260;10.548;2022-08-30T05:17:58;101176.41;;;15.21;100.00
7050;BME280;22263;52.260;10.548;2022-08-30T05:20:28;101183.94;;;15.13;100.00
7050;BME280;22263;52.260;10.548;2022-08-30T05:22:58;101187.97;;;15.19;100.00
7050;BME280;22263;52.260;10.548;2022-08-30T05:25:30;101193.50;;;15.12;100.00
7050;BME280;22263;52.260;10.548;2022-08-30T05:28:04;101199.81;;;14.99;100.00
7050;BME280;22263;52.260;10.548;2022-08-30T05:30:35;101191.44;;;15.02;100.00
7050;BME280;22263;52.260;10.548;2022-08-30T05:33:06;101203.88;;;15.19;100.00
7050;BME280;22263;52.260;10.548;2022-08-30T05:35:37;101196.69;;;15.21;100.00
7050;BME280;22263;52.260;10.548;2022-08-30T05:38:10;101197.50;;;15.25;100.00
7050;BME280;22263;52.260;10.548;2022-08-30T05:40:42;101193.50;;;15.12;100.00
7050;BME280;22263;52.260;10.548;2022-08-30T05:43:15;101201.47;;;15.17;100.00
7050;BME280;22263;52.260;10.548;2022-08-30T05:45:45;101191.94;;;15.25;100.00
7050;BME280;22263;52.260;10.548;2022-08-30T05:48:16;101191.97;;;15.33;100.00
7050;BME280;22263;52.260;10.548;2022-08-30T05:50:46;101188.00;;;15.34;100.00
7050;BME280;22263;52.260;10.548;2022-08-30T05:53:16;101184.03;;;15.45;100.00
7050;BME280;22263;52.260;10.548;2022-08-30T05:55:46;101177.72;;;15.55;100.00
7050;BME280;22263;52.260;10.548;2022-08-30T05:58:18;101177.72;;;15.66;100.00
7050;BME280;22263;52.260;10.548;2022-08-30T06:00:48;101187.28;;;15.58;100.00
7050;BME280;22263;52.260;10.548;2022-08-30T06:03:18;101185.69;;;15.53;100.00
7050;BME280;22263;52.260;10.548;2022-08-30T06:05:48;101183.72;;;15.54;100.00
7050;BME280;22263;52.260;10.548;2022-08-30T06:08:17;101183.28;;;15.59;100.00
7050;BME280;22263;52.260;10.548;2022-08-30T06:10:48;101182.91;;;15.53;100.00
7050;BME280;22263;52.260;10.548;2022-08-30T06:13:20;101186.88;;;15.52;100.00
7050;BME280;22263;52.260;10.548;2022-08-30T06:15:50;101188.88;;;15.55;100.00
7050;BME280;22263;52.260;10.548;2022-08-30T06:18:20;101194.47;;;15.73;100.00
7050;BME280;22263;52.260;10.548;2022-08-30T06:20:54;101188.13;;;15.76;100.00
7050;BME280;22263;52.260;10.548;2022-08-30T06:23:24;101190.88;;;15.83;100.00
7050;BME280;22263;52.260;10.548;2022-08-30T06:25:55;101194.91;;;15.96;100.00
7050;BME280;22263;52.260;10.548;2022-08-30T06:28:29;101178.16;;;16.00;100.00
7050;BME280;22263;52.260;10.548;2022-08-30T06:30:59;101189.31;;;16.14;100.00
7050;BME280;22263;52.260;10.548;2022-08-30T06:33:29;101186.13;;;16.19;100.00
7050;BME280;22263;52.260;10.548;2022-08-30T06:36:01;101175.75;;;16.27;100.00
7050;BME280;22263;52.260;10.548;2022-08-30T06:38:32;101184.91;;;16.41;100.00
7050;BME280;22263;52.260;10.548;2022-08-30T06:41:04;101177.72;;;16.44;100.00
7050;BME280;22263;52.260;10.548;2022-08-30T06:43:38;101183.28;;;16.62;100.00
7050;BME280;22263;52.260;10.548;2022-08-30T06:46:16;101180.06;;;16.70;100.00
7050;BME280;22263;52.260;10.548;2022-08-30T06:48:48;101185.69;;;16.67;100.00
7050;BME280;22263;52.260;10.548;2022-08-30T06:51:23;101181.69;;;16.71;100.00
7050;BME280;22263;52.260;10.548;2022-08-30T06:53:55;101178.06;;;16.78;100.00
7050;BME280;22263;52.260;10.548;2022-08-30T06:56:25;101185.59;;;16.91;100.00
7050;BME280;22263;52.260;10.548;2022-08-30T06:58:59;101175.19;;;16.99;100.00
7050;BME280;22263;52.260;10.548;2022-08-30T07:01:29;101174.38;;;17.06;100.00
7050;BME280;22263;52.260;10.548;2022-08-30T07:04:00;101177.09;;;17.20;100.00
7050;BME280;22263;52.260;10.548;2022-08-30T07:06:31;101172.59;;;17.40;100.00
7050;BME280;22263;52.260;10.548;2022-08-30T07:09:02;101168.53;;;17.48;100.00
7050;BME280;22263;52.260;10.548;2022-08-30T07:11:34;101162.09;;;17.58;100.00
7050;BME280;22263;52.260;10.548;2022-08-30T07:14:09;101166.03;;;17.71;100.00
7050;BME280;22263;52.260;10.548;2022-08-30T07:16:40;101171.81;;;17.95;100.00
7050;BME280;22263;52.260;10.548;2022-08-30T07:19:10;101168.91;;;18.12;100.00
7050;BME280;22263;52.260;10.548;2022-08-30T07:21:47;101173.63;;;18.19;100.00
7050;BME280;22263;52.260;10.548;2022-08-30T07:24:18;101168.78;;;18.26;100.00
7050;BME280;22263;52.260;10.548;2022-08-30T07:26:49;101176.28;;;18.33;100.00
7050;BME280;22263;52.260;10.548;2022-08-30T07:29:22;101166.91;;;18.54;100.00
7050;BME280;22263;52.260;10.548;2022-08-30T07:31:52;101161.25;;;18.57;100.00
7050;BME280;22263;52.260;10.548;2022-08-30T07:34:22;101180.19;;;18.43;100.00
7050;BME280;22263;52.260;10.548;2022-08-30T07:36:53;101176.06;;;18.58;100.00
7050;BME280;22263;52.260;10.548;2022-08-30T07:39:23;101170.41;;;18.61;100.00
7050;BME280;22263;52.260;10.548;2022-08-30T07:41:57;101171.28;;;18.92;100.00
7050;BME280;22263;52.260;10.548;2022-08-30T07:44:31;101169.31;;;18.89;100.00
7050;BME280;22263;52.260;10.548;2022-08-30T07:47:01;101168.88;;;18.91;100.00
7050;BME280;22263;52.260;10.548;2022-08-30T07:49:32;101174.25;;;18.78;100.00
7050;BME280;22263;52.260;10.548;2022-08-30T07:52:02;101165.75;;;18.85;100.00
7050;BME280;22263;52.260;10.548;2022-08-30T07:54:38;101178.19;;;19.18;100.00
7050;BME280;22263;52.260;10.548;2022-08-30T07:57:08;101173.31;;;19.22;100.00
7050;BME280;22263;52.260;10.548;2022-08-30T07:59:44;101177.28;;;19.25;100.00
7050;BME280;22263;52.260;10.548;2022-08-30T08:02:15;101182.31;;;19.06;100.00
7050;BME280;22263;52.260;10.548;2022-08-30T08:04:45;101184.72;;;19.08;100.00
7050;BME280;22263;52.260;10.548;2022-08-30T08:07:19;101186.66;;;18.77;100.00
7050;BME280;22263;52.260;10.548;2022-08-30T08:09:55;101177.84;;;18.79;100.00
7050;BME280;22263;52.260;10.548;2022-08-30T08:12:26;101173.53;;;18.70;100.00
7050;BME280;22263;52.260;10.548;2022-08-30T08:14:59;101174.59;;;18.84;100.00
7050;BME280;22263;52.260;10.548;2022-08-30T08:17:34;101185.16;;;18.69;100.00
7050;BME280;22263;52.260;10.548;2022-08-30T08:20:05;101183.50;;;18.75;100.00
7050;BME280;22263;52.260;10.548;2022-08-30T08:22:35;101181.88;;;18.78;100.00
7050;BME280;22263;52.260;10.548;2022-08-30T08:25:06;101184.91;;;18.53;100.00
7050;BME280;22263;52.260;10.548;2022-08-30T08:27:36;101184.56;;;18.47;100.00
7050;BME280;22263;52.260;10.548;2022-08-30T08:30:10;101190.91;;;18.51;100.00
7050;BME280;22263;52.260;10.548;2022-08-30T08:32:40;101191.34;;;18.50;100.00
7050;BME280;22263;52.260;10.548;2022-08-30T08:35:12;101188.59;;;18.43;100.00
7050;BME280;22263;52.260;10.548;2022-08-30T08:37:42;101184.06;;;18.59;100.00
7050;BME280;22263;52.260;10.548;2022-08-30T08:40:14;101204.91;;;18.51;100.00
7050;BME280;22263;52.260;10.548;2022-08-30T08:42:54;101194.59;;;18.45;100.00
7050;BME280;22263;52.260;10.548;2022-08-30T08:45:37;101192.50;;;18.52;100.00
7050;BME280;22263;52.260;10.548;2022-08-30T08:48:16;101190.38;;;18.22;100.00
7050;BME280;22263;52.260;10.548;2022-08-30T08:50:48;101195.53;;;18.31;100.00
7050;BME280;22263;52.260;10.548;2022-08-30T08:53:33;101186.88;;;18.59;100.00
7050;BME280;22263;52.260;10.548;2022-08-30T08:56:14;101194.06;;;18.60;100.00
7050;BME280;22263;52.260;10.548;2022-08-30T08:58:46;101192.53;;;18.49;100.00
7050;BME280;22263;52.260;10.548;2022-08-30T09:01:25;101188.31;;;18.75;100.00
7050;BME280;22263;52.260;10.548;2022-08-30T09:03:56;101188.09;;;18.92;100.00
7050;BME280;22263;52.260;10.548;2022-08-30T09:06:41;101197.38;;;19.20;100.00
7050;BME280;22263;52.260;10.548;2022-08-30T09:09:15;101191.56;;;19.34;100.00
7050;BME280;22263;52.260;10.548;2022-08-30T09:11:48;101200.25;;;19.43;100.00
7050;BME280;22263;52.260;10.548;2022-08-30T09:14:22;101205.47;;;19.44;100.00
7050;BME280;22263;52.260;10.548;2022-08-30T09:17:01;101197.66;;;19.29;100.00
7050;BME280;22263;52.260;10.548;2022-08-30T09:19:38;101204.03;;;19.33;100.00
7050;BME280;22263;52.260;10.548;2022-08-30T09:22:16;101207.94;;;19.39;100.00
7050;BME280;22263;52.260;10.548;2022-08-30T09:24:51;101197.56;;;19.36;100.00
7050;BME280;22263;52.260;10.548;2022-08-30T09:27:24;101202.28;;;19.42;100.00
7050;BME280;22263;52.260;10.548;2022-08-30T09:30:05;101192.72;;;19.67;100.00
7050;BME280;22263;52.260;10.548;2022-08-30T09:32:49;101190.28;;;19.95;100.00
7050;BME280;22263;52.260;10.548;2022-08-30T09:35:24;101185.44;;;20.46;100.00
7050;BME280;22263;52.260;10.548;2022-08-30T09:37:56;101180.16;;;20.48;100.00
7050;BME280;22263;52.260;10.548;2022-08-30T09:40:32;101179.97;;;20.59;100.00
7050;BME280;22263;52.260;10.548;2022-08-30T09:43:06;101179.75;;;21.64;100.00
7050;BME280;22263;52.260;10.548;2022-08-30T09:45:40;101185.00;;;21.82;100.00
7050;BME280;22263;52.260;10.548;2022-08-30T09:48:28;101181.94;;;24.16;100.00
7050;BME280;22263;52.260;10.548;2022-08-30T09:51:32;101176.75;;;25.58;97.54
7050;BME280;22263;52.260;10.548;2022-08-30T09:54:15;101176.66;;;26.29;89.10
7050;BME280;22263;52.260;10.548;2022-08-30T09:56:58;101172.44;;;26.97;81.99
7050;BME280;22263;52.260;10.548;2022-08-30T09:59:47;101168.78;;;27.66;70.96
7050;BME280;22263;52.260;10.548;2022-08-30T10:02:32;101169.13;;;27.92;72.73
7050;BME280;22263;52.260;10.548;2022-08-30T10:05:13;101155.47;;;28.05;71.53
7050;BME280;22263;52.260;10.548;2022-08-30T10:07:53;101166.38;;;27.31;74.19
7050;BME280;22263;52.260;10.548;2022-08-30T10:10:31;101161.75;;;27.52;70.96
7050;BME280;22263;52.260;10.548;2022-08-30T10:13:15;101160.44;;;27.95;68.42
7050;BME280;22263;52.260;10.548;2022-08-30T10:15:54;101147.50;;;29.10;59.29
7050;BME280;22263;52.260;10.548;2022-08-30T10:18:30;101152.00;;;29.16;59.64
7050;BME280;22263;52.260;10.548;2022-08-30T10:21:10;101146.63;;;30.17;53.36
7050;BME280;22263;52.260;10.548;2022-08-30T10:24:05;101147.06;;;30.51;51.99
7050;BME280;22263;52.260;10.548;2022-08-30T10:26:46;101144.94;;;28.97;57.97
7050;BME280;22263;52.260;10.548;2022-08-30T10:29:22;101145.44;;;28.81;58.21
7050;BME280;22263;52.260;10.548;2022-08-30T10:32:02;101144.59;;;29.83;54.15
7050;BME280;22263;52.260;10.548;2022-08-30T10:34:36;101140.47;;;30.04;56.11
7050;BME280;22263;52.260;10.548;2022-08-30T10:37:14;101143.97;;;31.00;50.21
7050;BME280;22263;52.260;10.548;2022-08-30T10:39:49;101143.28;;;30.39;52.27
7050;BME280;22263;52.260;10.548;2022-08-30T10:42:24;101147.38;;;32.04;47.38
7050;BME280;22263;52.260;10.548;2022-08-30T10:44:58;101145.44;;;29.54;52.63
7050;BME280;22263;52.260;10.548;2022-08-30T10:47:35;101142.75;;;31.07;50.43
7050;BME280;22263;52.260;10.548;2022-08-30T10:50:13;101146.72;;;31.46;47.08
7050;BME280;22263;52.260;10.548;2022-08-30T10:52:51;101150.50;;;32.00;46.05
7050;BME280;22263;52.260;10.548;2022-08-30T10:55:25;101143.34;;;32.22;45.41
7050;BME280;22263;52.260;10.548;2022-08-30T10:57:58;101137.03;;;31.38;46.98
7050;BME280;22263;52.260;10.548;2022-08-30T11:00:32;101144.13;;;30.05;51.39
7050;BME280;22263;52.260;10.548;2022-08-30T11:03:35;101136.22;;;30.81;48.71
7050;BME280;22263;52.260;10.548;2022-08-30T11:06:21;101136.22;;;30.35;51.62
7050;BME280;22263;52.260;10.548;2022-08-30T11:09:18;101132.78;;;32.50;45.30
7050;BME280;22263;52.260;10.548;2022-08-30T11:12:14;101133.75;;;30.94;46.63
7050;BME280;22263;52.260;10.548;2022-08-30T11:14:49;101135.72;;;29.17;53.09
7050;BME280;22263;52.260;10.548;2022-08-30T11:17:25;101130.69;;;29.91;52.23
7050;BME280;22263;52.260;10.548;2022-08-30T11:19:57;101131.72;;;30.28;48.49
7050;BME280;22263;52.260;10.548;2022-08-30T11:22:31;101116.41;;;30.71;49.25
7050;BME280;22263;52.260;10.548;2022-08-30T11:25:10;101115.34;;;31.21;47.12
7050;BME280;22263;52.260;10.548;2022-08-30T11:27:44;101111.91;;;30.91;45.85
7050;BME280;22263;52.260;10.548;2022-08-30T11:30:47;101115.88;;;30.27;47.88
7050;BME280;22263;52.260;10.548;2022-08-30T11:33:37;101114.44;;;31.40;44.32
7050;BME280;22263;52.260;10.548;2022-08-30T11:42:43;101101.84;;;32.65;40.87
7050;BME280;22263;52.260;10.548;2022-08-30T11:45:46;101101.88;;;31.27;43.39
7050;BME280;22263;52.260;10.548;2022-08-30T11:48:41;101097.00;;;31.70;42.49
7050;BME280;22263;52.260;10.548;2022-08-30T11:51:37;101101.75;;;31.84;41.92
7050;BME280;22263;52.260;10.548;2022-08-30T11:54:17;101094.88;;;31.65;42.43
7050;BME280;22263;52.260;10.548;2022-08-30T11:56:56;101095.56;;;32.61;40.45
7050;BME280;22263;52.260;10.548;2022-08-30T11:59:43;101099.19;;;31.17;42.21
7050;BME280;22263;52.260;10.548;2022-08-30T12:02:42;101094.78;;;31.96;41.68
7050;BME280;22263;52.260;10.548;2022-08-30T12:08:49;101091.09;;;31.84;41.78
7050;BME280;22263;52.260;10.548;2022-08-30T12:14:50;101080.97;;;31.89;41.30
7050;BME280;22263;52.260;10.548;2022-08-30T12:17:30;101077.38;;;30.89;44.20
7050;BME280;22263;52.260;10.548;2022-08-30T12:20:25;101076.22;;;31.75;41.17
7050;BME280;22263;52.260;10.548;2022-08-30T12:22:56;101078.25;;;30.74;43.04
7050;BME280;22263;52.260;10.548;2022-08-30T12:25:46;101066.41;;;31.13;41.39
7050;BME280;22263;52.260;10.548;2022-08-30T12:28:21;101068.13;;;30.48;43.70
7050;BME280;22263;52.260;10.548;2022-08-30T12:31:06;101065.66;;;31.12;41.93
7050;BME280;22263;52.260;10.548;2022-08-30T12:33:42;101065.81;;;30.06;44.25
7050;BME280;22263;52.260;10.548;2022-08-30T12:36:34;101057.50;;;30.08;43.74
7050;BME280;22263;52.260;10.548;2022-08-30T12:39:12;101047.59;;;31.38;42.33
7050;BME280;22263;52.260;10.548;2022-08-30T12:41:44;101059.50;;;31.62;40.46
7050;BME280;22263;52.260;10.548;2022-08-30T12:44:19;101052.56;;;31.80;40.54
7050;BME280;22263;52.260;10.548;2022-08-30T12:46:57;101054.97;;;31.50;41.19
7050;BME280;22263;52.260;10.548;2022-08-30T12:49:33;101037.25;;;30.26;42.85
7050;BME280;22263;52.260;10.548;2022-08-30T12:52:16;101035.63;;;31.34;41.25
7050;BME280;22263;52.260;10.548;2022-08-30T12:54:49;101040.06;;;31.35;40.06
7050;BME280;22263;52.260;10.548;2022-08-30T12:57:35;101031.88;;;31.16;41.66
7050;BME280;22263;52.260;10.548;2022-08-30T13:00:09;101030.44;;;31.38;41.65
7050;BME280;22263;52.260;10.548;2022-08-30T13:02:46;101026.34;;;31.92;40.40
7050;BME280;22263;52.260;10.548;2022-08-30T13:05:43;101029.88;;;31.71;40.14
7050;BME280;22263;52.260;10.548;2022-08-30T13:08:21;101017.84;;;30.56;42.22
7050;BME280;22263;52.260;10.548;2022-08-30T13:10:59;101018.94;;;31.64;40.46
7050;BME280;22263;52.260;10.548;2022-08-30T13:13:39;101021.47;;;30.82;41.74
7050;BME280;22263;52.260;10.548;2022-08-30T13:16:23;101014.38;;;30.46;43.45
7050;BME280;22263;52.260;10.548;2022-08-30T13:19:24;101009.19;;;30.24;43.73
7050;BME280;22263;52.260;10.548;2022-08-30T13:21:56;101019.28;;;30.20;44.03
7050;BME280;22263;52.260;10.548;2022-08-30T13:24:28;101017.66;;;29.73;44.02
7050;BME280;22263;52.260;10.548;2022-08-30T13:27:03;101014.63;;;29.41;44.67
7050;BME280;22263;52.260;10.548;2022-08-30T13:29:37;101016.44;;;29.59;45.41
7050;BME280;22263;52.260;10.548;2022-08-30T13:32:07;101012.72;;;29.53;43.49
7050;BME280;22263;52.260;10.548;2022-08-30T13:34:42;101014.28;;;29.74;42.45